Time;durP1;ratioP1;P1;durP2;ratioP2;P2;SDS_P1;SDS_P2;PMS_P1;PMS_P2;Temp;Humidity;BMP_temperature;BMP_pressure;BME280_temperature;BME280_humidity;BME280_pressure;Samples;Min_cycle;Max_cycle;Signal;HPM_P1;HPM_P2
2023/09/14 00:00:55;;;;;;;9.63;5.65;;;;;;;10.31;100.00;102093.91;5039762;28;20042;-77
2023/09/14 00:03:23;;;;;;;11.98;5.82;;;;;;;10.37;100.00;102095.09;5068355;23;20048;-77
2023/09/14 00:05:50;;;;;;;8.50;5.38;;;;;;;10.43;100.00;102097.16;5062712;28;20021;-77
2023/09/14 00:08:16;;;;;;;11.10;5.78;;;;;;;10.48;100.00;102092.13;5067379;28;20120;-77
2023/09/14 00:10:41;;;;;;;9.93;5.47;;;;;;;10.56;100.00;102085.94;5067886;28;20473;-77
2023/09/14 00:13:08;;;;;;;8.85;5.28;;;;;;;10.64;100.00;102094.00;5067613;28;20044;-77
2023/09/14 00:15:34;;;;;;;7.85;4.93;;;;;;;10.71;100.00;102095.03;5069407;28;20025;-77
2023/09/14 00:18:00;;;;;;;8.73;5.22;;;;;;;10.80;100.00;102098.56;5066411;28;20526;-77
2023/09/14 00:20:28;;;;;;;9.57;5.05;;;;;;;10.88;100.00;102103.94;5061199;28;20056;-77
2023/09/14 00:22:54;;;;;;;9.40;5.15;;;;;;;10.94;100.00;102105.16;5071089;28;20056;-77
2023/09/14 00:25:20;;;;;;;6.68;4.55;;;;;;;11.01;100.00;102100.75;5068604;28;20035;-77
2023/09/14 00:27:48;;;;;;;6.93;4.50;;;;;;;11.07;100.00;102092.00;5061808;28;20124;-78
2023/09/14 00:30:15;;;;;;;8.82;5.25;;;;;;;11.14;100.00;102094.00;5068056;28;20079;-77
2023/09/14 00:32:40;;;;;;;8.23;4.95;;;;;;;11.20;100.00;102096.03;5070679;28;20028;-78
2023/09/14 00:35:12;;;;;;;9.38;5.60;;;;;;;11.25;100.00;102088.28;5066854;28;20052;-77
2023/09/14 00:37:49;;;;;;;11.38;5.22;;;;;;;11.27;100.00;102083.56;5050382;22;20154;-77
2023/09/14 00:40:17;;;;;;;8.15;5.30;;;;;;;11.31;100.00;102089.44;5047641;28;20110;-77
2023/09/14 00:42:44;;;;;;;8.55;5.05;;;;;;;11.32;100.00;102089.25;5046911;28;20449;-77
2023/09/14 00:45:14;;;;;;;9.95;5.32;;;;;;;11.35;100.00;102091.59;5050753;28;20029;-77
2023/09/14 00:47:54;;;;;;;7.72;4.80;;;;;;;11.39;100.00;102086.72;5044176;28;20086;-77
2023/09/14 00:50:20;;;;;;;7.93;5.25;;;;;;;11.42;100.00;102096.31;5032232;28;20032;-77
2023/09/14 00:52:56;;;;;;;10.15;5.13;;;;;;;11.45;100.00;102093.28;5060336;22;20052;-77
2023/09/14 00:55:22;;;;;;;8.45;5.05;;;;;;;11.47;100.00;102088.56;5043442;28;20066;-77
2023/09/14 00:57:50;;;;;;;8.75;4.95;;;;;;;11.51;100.00;102092.56;5070803;28;20060;-77
2023/09/14 01:00:17;;;;;;;7.35;4.60;;;;;;;11.56;100.00;102090.22;5069480;28;20032;-77
2023/09/14 01:02:43;;;;;;;6.07;4.35;;;;;;;11.58;100.00;102084.63;5049906;28;20032;-76
2023/09/14 01:05:09;;;;;;;8.35;4.75;;;;;;;11.61;100.00;102089.69;5066416;28;20031;-77
2023/09/14 01:07:34;;;;;;;8.90;5.20;;;;;;;11.63;100.00;102083.13;5030403;28;20095;-77
2023/09/14 01:10:00;;;;;;;8.05;4.90;;;;;;;11.65;100.00;102086.47;5060270;28;20024;-79
2023/09/14 01:12:27;;;;;;;6.75;4.50;;;;;;;11.68;100.00;102090.69;5065551;28;20055;-76
2023/09/14 01:15:09;;;;;;;8.90;5.00;;;;;;;11.71;100.00;102086.78;5043374;28;20025;-77
2023/09/14 01:17:46;;;;;;;11.57;4.63;;;;;;;11.71;100.00;102086.78;5049054;28;20032;-77
2023/09/14 01:20:45;;;;;;;9.77;4.50;;;;;;;11.71;100.00;102086.78;5034413;28;20537;-79
2023/09/14 01:23:41;;;;;;;7.15;4.60;;;;;;;11.70;100.00;102082.41;5071658;28;20025;-77
2023/09/14 01:26:08;;;;;;;10.88;4.68;;;;;;;11.68;100.00;102083.44;5070662;28;20040;-77
2023/09/14 01:28:33;;;;;;;7.95;4.50;;;;;;;11.66;100.00;102082.75;5050782;28;20029;-76
2023/09/14 01:30:59;;;;;;;8.38;4.60;;;;;;;11.66;100.00;102085.44;5073230;28;20051;-78
2023/09/14 01:33:27;;;;;;;10.23;4.45;;;;;;;11.65;100.00;102085.63;5067144;28;20054;-76
2023/09/14 01:35:57;;;;;;;6.07;3.85;;;;;;;11.64;100.00;102079.41;5049235;28;20024;-77
2023/09/14 01:38:22;;;;;;;9.68;4.63;;;;;;;11.63;100.00;102082.28;5056499;28;20040;-77
2023/09/14 01:40:48;;;;;;;6.47;4.00;;;;;;;11.63;100.00;102087.66;5045180;28;20028;-77
2023/09/14 01:43:19;;;;;;;6.50;4.20;;;;;;;11.60;100.00;102088.88;5038933;28;20035;-78
2023/09/14 01:46:11;;;;;;;9.90;4.60;;;;;;;11.55;100.00;102088.53;5061272;28;20036;-77
2023/09/14 01:48:59;;;;;;;7.80;4.05;;;;;;;11.49;100.00;102090.06;5047232;28;20036;-76
2023/09/14 01:51:24;;;;;;;6.35;4.10;;;;;;;11.44;100.00;102094.31;5057107;28;20035;-77
2023/09/14 01:53:49;;;;;;;11.70;5.03;;;;;;;11.38;100.00;102088.56;5040700;28;20388;-77
2023/09/14 01:56:14;;;;;;;6.97;4.68;;;;;;;11.33;100.00;102082.84;5026135;28;20034;-77
2023/09/14 01:58:40;;;;;;;6.50;4.40;;;;;;;11.29;100.00;102084.22;5063131;28;20354;-77
2023/09/14 02:01:05;;;;;;;8.75;4.80;;;;;;;11.27;100.00;102086.25;5065497;28;21003;-77
2023/09/14 02:03:30;;;;;;;7.47;4.60;;;;;;;11.26;100.00;102083.72;5066585;28;20025;-77
2023/09/14 02:05:58;;;;;;;9.38;4.72;;;;;;;11.23;100.00;102074.13;5065457;28;20037;-77
2023/09/14 02:08:24;;;;;;;7.07;4.60;;;;;;;11.23;100.00;102080.34;5069187;28;20029;-76
2023/09/14 02:10:49;;;;;;;7.03;4.10;;;;;;;11.23;100.00;102077.63;5063267;28;20031;-76
2023/09/14 02:13:15;;;;;;;7.18;4.18;;;;;;;11.23;100.00;102087.59;5071600;22;20053;-76
2023/09/14 02:15:40;;;;;;;8.23;4.53;;;;;;;11.22;100.00;102077.81;5044291;28;20021;-76
2023/09/14 02:18:11;;;;;;;8.07;4.32;;;;;;;11.19;100.00;102083.56;5050498;28;20035;-77
2023/09/14 02:20:40;;;;;;;6.43;4.18;;;;;;;11.18;100.00;102079.16;5045802;28;20100;-76
2023/09/14 02:26:23;;;;;;;8.73;4.47;;;;;;;11.12;100.00;102079.88;5038124;28;20197;-77
2023/09/14 02:29:00;;;;;;;7.80;4.68;;;;;;;11.05;100.00;102077.84;5046673;28;20036;-78
2023/09/14 02:31:26;;;;;;;8.25;4.82;;;;;;;11.04;100.00;102068.06;5047760;28;20029;-78
2023/09/14 02:33:52;;;;;;;8.40;4.47;;;;;;;11.02;100.00;102075.50;5040383;28;20029;-78
2023/09/14 02:36:21;;;;;;;7.53;4.38;;;;;;;11.02;100.00;102075.50;5048325;28;20024;-78
2023/09/14 02:38:49;;;;;;;9.23;4.50;;;;;;;10.99;100.00;102070.44;5044819;28;20045;-78
2023/09/14 02:41:15;;;;;;;8.68;4.45;;;;;;;10.96;100.00;102067.25;5046082;28;20039;-77
2023/09/14 02:43:40;;;;;;;8.50;4.50;;;;;;;10.95;100.00;102062.88;5047535;28;20041;-77
2023/09/14 02:46:06;;;;;;;8.60;4.32;;;;;;;10.93;100.00;102063.03;5036165;28;20037;-78
2023/09/14 02:48:31;;;;;;;9.25;4.53;;;;;;;10.92;100.00;102066.75;5060144;28;20016;-78
2023/09/14 02:50:57;;;;;;;6.75;4.13;;;;;;;10.89;100.00;102076.00;5051968;28;20045;-78
2023/09/14 02:53:22;;;;;;;7.43;4.13;;;;;;;10.88;100.00;102065.41;5053290;28;20024;-78
2023/09/14 02:55:48;;;;;;;6.57;4.30;;;;;;;10.85;100.00;102063.03;5044211;28;20025;-79
2023/09/14 02:58:13;;;;;;;8.57;4.47;;;;;;;10.85;100.00;102060.34;5047730;28;20400;-78
2023/09/14 03:00:39;;;;;;;8.30;4.20;;;;;;;10.88;100.00;102063.53;5043350;28;20033;-78
2023/09/14 03:03:05;;;;;;;7.03;4.57;;;;;;;10.90;100.00;102060.69;5036211;28;20044;-78
2023/09/14 03:05:30;;;;;;;6.85;3.97;;;;;;;10.91;100.00;102057.81;5050143;28;20037;-77
2023/09/14 03:07:56;;;;;;;7.90;4.65;;;;;;;10.85;100.00;102054.94;5051188;28;20045;-77
2023/09/14 03:10:21;;;;;;;9.68;4.50;;;;;;;10.79;100.00;102052.94;5047163;28;20051;-77
2023/09/14 03:12:47;;;;;;;7.07;4.45;;;;;;;10.76;100.00;102054.13;5058055;28;20086;-77
2023/09/14 03:15:14;;;;;;;7.60;4.20;;;;;;;10.69;100.00;102050.41;5057464;28;20033;-77
2023/09/14 03:17:41;;;;;;;7.90;4.35;;;;;;;10.63;100.00;102059.16;5045763;28;20030;-78
2023/09/14 03:20:07;;;;;;;9.48;4.60;;;;;;;10.63;100.00;102060.00;5041885;28;20021;-77
2023/09/14 03:22:32;;;;;;;8.32;4.53;;;;;;;10.59;100.00;102058.66;5047646;28;20036;-78
2023/09/14 03:24:58;;;;;;;7.55;4.32;;;;;;;10.57;100.00;102066.06;5047081;28;20025;-78
2023/09/14 03:27:27;;;;;;;8.18;4.38;;;;;;;10.51;100.00;102067.56;5045578;28;20041;-78
2023/09/14 03:29:58;;;;;;;6.95;4.55;;;;;;;10.47;100.00;102071.59;5048380;28;20036;-78
2023/09/14 03:32:24;;;;;;;7.93;4.30;;;;;;;10.42;100.00;102074.78;5044111;28;20035;-78
2023/09/14 03:34:49;;;;;;;7.72;4.20;;;;;;;10.39;100.00;102072.44;5030484;28;20029;-78
2023/09/14 03:37:15;;;;;;;6.40;4.43;;;;;;;10.38;100.00;102070.75;5047522;28;20047;-77
2023/09/14 03:39:45;;;;;;;7.57;4.53;;;;;;;10.39;100.00;102080.53;5030447;28;20024;-77
2023/09/14 03:42:10;;;;;;;9.98;4.70;;;;;;;10.35;100.00;102078.25;5036877;28;20174;-78
2023/09/14 03:44:37;;;;;;;6.18;4.25;;;;;;;10.34;100.00;102081.97;5036779;28;20115;-77
2023/09/14 03:47:05;;;;;;;8.50;4.45;;;;;;;10.32;100.00;102076.75;5043575;28;20029;-78
2023/09/14 03:49:30;;;;;;;6.55;4.55;;;;;;;10.29;100.00;102080.63;5046925;28;20033;-76
2023/09/14 03:51:56;;;;;;;7.35;4.80;;;;;;;10.32;100.00;102084.84;5042033;28;20044;-76
2023/09/14 03:54:21;;;;;;;5.93;5.03;;;;;;;10.32;100.00;102082.13;5045978;28;20480;-76
2023/09/14 03:56:47;;;;;;;8.77;5.18;;;;;;;10.35;100.00;102083.66;5043004;28;20044;-77
2023/09/14 03:59:12;;;;;;;5.90;4.70;;;;;;;10.35;100.00;102079.13;5042520;28;20029;-77
2023/09/14 04:01:39;;;;;;;7.43;4.70;;;;;;;10.37;100.00;102084.31;5045881;28;20041;-77
2023/09/14 04:04:26;;;;;;;7.88;4.95;;;;;;;10.34;100.00;102088.22;5045181;28;20096;-77
2023/09/14 04:07:04;;;;;;;10.48;5.43;;;;;;;10.26;100.00;102077.41;5045502;28;20520;-76
2023/09/14 04:09:29;;;;;;;7.20;4.90;;;;;;;10.27;100.00;102079.09;5040196;28;20045;-77
2023/09/14 04:12:04;;;;;;;10.43;5.15;;;;;;;10.26;100.00;102082.78;5043502;28;20106;-77
2023/09/14 04:14:30;;;;;;;10.38;4.75;;;;;;;10.24;100.00;102074.03;5053220;22;20040;-77
2023/09/14 04:16:59;;;;;;;9.43;5.20;;;;;;;10.22;100.00;102084.16;5039501;28;20115;-76
2023/09/14 04:19:25;;;;;;;8.30;4.72;;;;;;;10.15;100.00;102070.47;5036366;28;20029;-77
2023/09/14 04:21:50;;;;;;;7.45;5.07;;;;;;;10.12;100.00;102077.03;5040902;28;20021;-78
2023/09/14 04:24:15;;;;;;;8.02;4.82;;;;;;;10.18;100.00;102072.03;5038298;28;20028;-78
2023/09/14 04:26:41;;;;;;;6.88;4.65;;;;;;;10.13;100.00;102076.03;5045738;28;20033;-78
2023/09/14 04:29:09;;;;;;;8.52;4.93;;;;;;;10.05;100.00;102073.34;5042793;28;20551;-78
2023/09/14 04:31:34;;;;;;;6.25;4.68;;;;;;;9.99;100.00;102076.66;5042456;28;20033;-77
2023/09/14 04:34:00;;;;;;;8.13;4.95;;;;;;;9.93;100.00;102080.00;5046127;28;20025;-77
2023/09/14 04:36:25;;;;;;;8.32;4.60;;;;;;;9.86;100.00;102074.44;5041634;28;20033;-77
2023/09/14 04:38:51;;;;;;;6.80;4.53;;;;;;;9.82;100.00;102090.06;5048382;28;20037;-77
2023/09/14 04:41:16;;;;;;;6.95;4.95;;;;;;;9.78;100.00;102075.25;5041698;28;20056;-76
2023/09/14 04:43:44;;;;;;;6.68;4.38;;;;;;;9.72;100.00;102081.25;5043591;28;20380;-78
2023/09/14 04:46:10;;;;;;;7.60;5.30;;;;;;;9.70;100.00;102078.72;5043955;28;20055;-77
2023/09/14 04:48:38;;;;;;;8.70;5.13;;;;;;;9.71;100.00;102076.88;5045991;28;20108;-74
2023/09/14 04:51:03;;;;;;;10.95;5.00;;;;;;;9.65;100.00;102075.69;5043694;28;20056;-74
2023/09/14 04:53:29;;;;;;;9.20;5.10;;;;;;;9.59;100.00;102079.03;5045109;28;20061;-74
2023/09/14 04:55:54;;;;;;;11.35;5.80;;;;;;;9.64;100.00;102086.59;5045367;28;20029;-72
2023/09/14 04:58:20;;;;;;;10.82;5.90;;;;;;;9.59;100.00;102089.78;5041447;28;20030;-76
2023/09/14 05:00:48;;;;;;;9.93;5.60;;;;;;;9.61;100.00;102092.28;5043624;28;20036;-76
2023/09/14 05:03:15;;;;;;;9.70;4.55;;;;;;;9.54;100.00;102089.41;5044755;28;20030;-74
2023/09/14 05:05:40;;;;;;;9.02;4.95;;;;;;;9.48;100.00;102090.88;5052482;28;20033;-76
2023/09/14 05:08:06;;;;;;;7.10;5.10;;;;;;;9.46;100.00;102084.81;5044361;28;20490;-76
2023/09/14 05:10:32;;;;;;;6.10;4.72;;;;;;;9.42;100.00;102090.69;5044892;28;20578;-76
2023/09/14 05:12:57;;;;;;;10.63;5.82;;;;;;;9.40;100.00;102094.38;5045419;28;20034;-77
2023/09/14 05:15:26;;;;;;;12.77;5.68;;;;;;;9.47;100.00;102089.22;5048161;28;20048;-77
2023/09/14 05:17:52;;;;;;;12.32;5.68;;;;;;;9.44;100.00;102092.19;5045373;28;20033;-77
2023/09/14 05:20:20;;;;;;;8.80;4.95;;;;;;;9.46;100.00;102086.66;5049962;28;20484;-77
2023/09/14 05:22:45;;;;;;;9.85;5.18;;;;;;;9.45;100.00;102083.13;5038717;28;20086;-74
2023/09/14 05:25:12;;;;;;;10.75;5.22;;;;;;;9.46;100.00;102079.44;5036042;28;20052;-75
2023/09/14 05:27:38;;;;;;;9.98;4.75;;;;;;;9.51;100.00;102087.03;5037747;28;20465;-75
2023/09/14 05:30:05;;;;;;;8.73;5.28;;;;;;;9.54;100.00;102087.53;5042773;28;20108;-74
2023/09/14 05:32:30;;;;;;;6.95;4.70;;;;;;;9.63;100.00;102093.81;5049101;28;20058;-75
2023/09/14 05:34:56;;;;;;;11.15;4.93;;;;;;;9.70;100.00;102094.03;5048817;28;20413;-75
2023/09/14 05:37:21;;;;;;;8.93;4.63;;;;;;;9.76;100.00;102101.44;5044476;28;20045;-75
2023/09/14 05:39:49;;;;;;;11.80;5.30;;;;;;;9.84;100.00;102103.31;5050522;28;20131;-77
2023/09/14 05:42:17;;;;;;;10.60;5.80;;;;;;;9.89;100.00;102098.31;5046443;28;20083;-77
2023/09/14 05:44:47;;;;;;;10.65;5.10;;;;;;;9.96;100.00;102101.19;5050490;28;20029;-76
2023/09/14 05:47:14;;;;;;;7.68;4.88;;;;;;;10.07;100.00;102106.28;5050199;28;20203;-77
2023/09/14 05:49:39;;;;;;;7.85;4.40;;;;;;;10.18;100.00;102109.69;5048262;28;20183;-77
2023/09/14 05:52:06;;;;;;;8.90;4.90;;;;;;;10.30;100.00;102108.38;5067013;28;20065;-76
2023/09/14 05:54:32;;;;;;;8.63;4.57;;;;;;;10.41;100.00;102116.16;5066493;28;20025;-77
2023/09/14 05:56:57;;;;;;;6.68;4.85;;;;;;;10.55;100.00;102116.56;5054660;28;20021;-76
2023/09/14 05:59:23;;;;;;;8.27;4.57;;;;;;;10.69;100.00;102123.13;5049741;28;20033;-75
2023/09/14 06:01:48;;;;;;;7.40;4.47;;;;;;;10.86;100.00;102127.50;5041364;28;20021;-76
2023/09/14 06:04:15;;;;;;;7.70;4.40;;;;;;;11.03;100.00;102119.47;5023067;28;20043;-76
2023/09/14 06:06:46;;;;;;;7.90;4.38;;;;;;;11.26;100.00;102122.31;5040090;28;20033;-76
2023/09/14 06:09:15;;;;;;;6.47;4.30;;;;;;;11.55;100.00;102131.69;5046820;28;20017;-76
2023/09/14 06:11:41;;;;;;;6.95;3.78;;;;;;;11.96;100.00;102125.31;5042136;28;22101;-75
2023/09/14 06:14:07;;;;;;;6.10;3.38;;;;;;;12.72;100.00;102124.75;5046734;28;20029;-76
2023/09/14 06:16:32;;;;;;;10.57;3.40;;;;;;;13.63;98.65;102132.09;5045802;28;20041;-76
2023/09/14 06:18:57;;;;;;;6.38;3.55;;;;;;;14.64;89.64;102134.19;5041248;28;20438;-75
2023/09/14 06:21:23;;;;;;;5.38;3.20;;;;;;;15.47;83.48;102132.84;5052071;28;20037;-76
2023/09/14 06:23:49;;;;;;;7.28;3.40;;;;;;;16.36;79.00;102139.34;5044499;28;20039;-76
2023/09/14 06:26:29;;;;;;;5.15;2.92;;;;;;;17.33;73.14;102140.16;5045530;28;20039;-79
2023/09/14 06:29:00;;;;;;;6.63;3.05;;;;;;;18.07;68.14;102145.44;5047975;28;20025;-78
2023/09/14 06:31:26;;;;;;;5.32;3.28;;;;;;;18.18;67.58;102145.59;5054326;22;20149;-78
2023/09/14 06:33:51;;;;;;;7.80;3.22;;;;;;;18.47;65.68;102137.09;5041017;28;20500;-77
2023/09/14 06:36:18;;;;;;;7.60;3.28;;;;;;;18.58;63.62;102139.09;5046394;28;20073;-78
2023/09/14 06:38:45;;;;;;;8.02;3.30;;;;;;;18.52;64.60;102137.28;5049635;28;20025;-76
2023/09/14 06:41:12;;;;;;;9.95;3.80;;;;;;;18.94;62.59;102137.63;5043040;28;20117;-76
2023/09/14 06:43:46;;;;;;;6.78;2.90;;;;;;;19.22;61.79;102141.81;5050391;28;20055;-76
2023/09/14 06:46:12;;;;;;;8.48;3.17;;;;;;;19.61;61.69;102149.00;5040749;28;20038;-75
2023/09/14 06:48:51;;;;;;;;;;;;;;;;;;;;;
2023/09/14 06:51:17;;;;;;;5.47;2.67;;;;;;;20.26;58.05;102151.22;5046773;22;20063;-74
2023/09/14 06:53:42;;;;;;;5.57;2.95;;;;;;;19.91;58.69;102145.56;5037721;28;20025;-74
2023/09/14 06:56:08;;;;;;;6.60;3.30;;;;;;;20.89;54.67;102150.97;5037778;28;20043;-74
2023/09/14 06:58:34;;;;;;;6.57;2.70;;;;;;;21.36;52.76;102148.28;5047614;28;20485;-74
2023/09/14 07:01:04;;;;;;;5.97;3.05;;;;;;;21.15;53.56;102154.38;5046699;28;20052;-74
2023/09/14 07:03:30;;;;;;;6.97;2.83;;;;;;;21.65;52.50;102142.97;5042514;28;20026;-74
2023/09/14 07:05:57;;;;;;;6.10;2.97;;;;;;;21.02;52.75;102153.50;5049666;28;20025;-74
2023/09/14 07:08:24;;;;;;;5.88;2.55;;;;;;;21.96;50.69;102157.31;5045616;28;20017;-74
2023/09/14 07:10:49;;;;;;;6.75;2.83;;;;;;;21.16;52.76;102156.03;5054191;28;20025;-74
2023/09/14 07:13:14;;;;;;;7.75;2.38;;;;;;;22.00;51.77;102156.84;5052624;28;20041;-74
2023/09/14 07:15:40;;;;;;;7.35;2.58;;;;;;;21.53;51.80;102158.56;5042513;28;20657;-74
2023/09/14 07:18:06;;;;;;;7.97;3.15;;;;;;;21.56;52.62;102160.78;5050856;28;20025;-74
2023/09/14 07:20:31;;;;;;;7.35;2.72;;;;;;;21.78;51.07;102161.06;5041577;28;20039;-74
2023/09/14 07:22:57;;;;;;;8.02;2.55;;;;;;;22.36;50.00;102157.56;5048429;28;20112;-74
2023/09/14 07:25:23;;;;;;;8.02;2.78;;;;;;;22.41;49.08;102152.19;5044609;28;20032;-74
2023/09/14 07:27:49;;;;;;;8.05;2.47;;;;;;;23.42;44.42;102156.13;5039521;28;20033;-74
2023/09/14 07:30:14;;;;;;;6.45;2.28;;;;;;;23.06;46.25;102162.91;5044479;28;20048;-73
2023/09/14 07:32:40;;;;;;;10.90;2.42;;;;;;;23.82;42.81;102170.69;5046505;28;20021;-74
2023/09/14 07:35:09;;;;;;;6.28;2.50;;;;;;;24.53;42.00;102174.59;5043602;28;20043;-74
2023/09/14 07:37:34;;;;;;;6.35;2.17;;;;;;;23.20;45.15;102166.19;5045015;28;20109;-74
2023/09/14 07:40:00;;;;;;;9.52;2.25;;;;;;;22.71;46.44;102171.13;5043409;28;20028;-74
2023/09/14 07:42:25;;;;;;;7.53;2.20;;;;;;;22.47;45.43;102177.81;5055837;28;20612;-75
2023/09/14 07:44:54;;;;;;;3.97;1.90;;;;;;;22.31;47.36;102176.66;5065493;28;20010;-75
2023/09/14 07:47:19;;;;;;;6.68;2.45;;;;;;;22.82;44.47;102174.88;5061424;28;20040;-76
2023/09/14 07:49:47;;;;;;;4.45;2.20;;;;;;;23.68;43.26;102172.97;5052300;28;20345;-75
2023/09/14 07:52:13;;;;;;;8.13;2.33;;;;;;;22.59;44.81;102170.38;5049387;28;20049;-75
2023/09/14 07:54:38;;;;;;;5.43;2.25;;;;;;;22.43;47.09;102176.66;5040740;28;20469;-75
2023/09/14 07:57:04;;;;;;;8.23;2.03;;;;;;;21.88;47.84;102176.91;5043535;28;20022;-74
2023/09/14 07:59:29;;;;;;;7.63;2.58;;;;;;;22.65;44.96;102180.38;5062605;28;20156;-75
2023/09/14 08:01:54;;;;;;;9.23;2.28;;;;;;;23.45;42.64;102185.84;5040928;28;20130;-75
2023/09/14 08:04:20;;;;;;;6.50;2.03;;;;;;;23.05;44.41;102183.22;5037844;28;20032;-75
2023/09/14 08:06:45;;;;;;;8.25;2.15;;;;;;;22.43;44.16;102188.44;5037719;28;20052;-75
2023/09/14 08:09:10;;;;;;;6.03;1.70;;;;;;;22.37;44.69;102195.72;5042207;28;20033;-75
2023/09/14 08:11:36;;;;;;;6.22;2.05;;;;;;;21.91;45.29;102192.84;5036793;28;20021;-75
2023/09/14 08:14:02;;;;;;;5.90;1.90;;;;;;;22.38;44.78;102189.16;5039003;28;20039;-75
2023/09/14 08:16:32;;;;;;;5.93;1.85;;;;;;;24.15;40.85;102181.84;5035512;28;20476;-75
2023/09/14 08:18:57;;;;;;;7.43;2.08;;;;;;;24.60;40.32;102191.72;5036893;28;20043;-76
2023/09/14 08:21:23;;;;;;;8.05;2.10;;;;;;;25.98;37.54;102189.44;5041228;28;20025;-75
2023/09/14 08:23:48;;;;;;;6.25;2.00;;;;;;;26.52;36.56;102198.50;5045716;28;20017;-75
2023/09/14 08:26:15;;;;;;;8.30;2.10;;;;;;;25.76;37.71;102190.47;5039758;28;20033;-75
2023/09/14 08:28:40;;;;;;;4.93;2.20;;;;;;;26.20;36.91;102194.00;5046532;28;20032;-75
2023/09/14 08:31:06;;;;;;;4.50;1.85;;;;;;;25.76;36.86;102190.47;5040177;28;20025;-75
2023/09/14 08:33:31;;;;;;;5.88;1.85;;;;;;;24.90;38.96;102201.38;5046473;28;22025;-74
2023/09/14 08:35:57;;;;;;;8.05;2.08;;;;;;;24.16;40.13;102191.78;5049547;28;20029;-74
2023/09/14 08:38:25;;;;;;;3.65;1.65;;;;;;;25.01;37.39;102195.97;5050072;28;20029;-73
2023/09/14 08:40:52;;;;;;;8.45;2.17;;;;;;;24.72;36.77;102194.34;5056810;22;20096;-73
2023/09/14 08:43:19;;;;;;;6.47;1.80;;;;;;;25.40;37.33;102199.31;5045452;28;20022;-73
2023/09/14 08:45:45;;;;;;;4.30;1.90;;;;;;;27.24;33.35;102190.28;5045323;28;20012;-73
2023/09/14 08:48:10;;;;;;;6.35;2.10;;;;;;;26.46;34.96;102181.94;5027167;28;20332;-73
2023/09/14 08:50:35;;;;;;;5.07;1.67;;;;;;;24.75;37.49;102184.72;5038792;28;20465;-73
2023/09/14 08:53:01;;;;;;;5.68;1.73;;;;;;;24.62;37.87;102177.69;5024897;28;20037;-75
2023/09/14 08:55:31;;;;;;;8.73;2.47;;;;;;;25.17;36.11;102174.88;5041653;28;20454;-74
2023/09/14 08:57:57;;;;;;;4.13;1.63;;;;;;;25.36;35.91;102175.31;5031107;28;20057;-74
2023/09/14 09:00:25;;;;;;;5.57;1.70;;;;;;;25.73;35.62;102171.69;5040229;28;20040;-75
2023/09/14 09:02:52;;;;;;;6.93;1.90;;;;;;;25.60;34.86;102173.00;5040544;28;20033;-75
2023/09/14 09:05:18;;;;;;;6.65;1.88;;;;;;;25.27;34.93;102174.97;5039996;28;20056;-76
2023/09/14 09:07:44;;;;;;;5.28;1.95;;;;;;;25.58;33.35;102187.06;5046588;28;20028;-75
2023/09/14 09:10:22;;;;;;;4.20;1.73;;;;;;;25.16;34.83;102165.78;5047924;28;20632;-75
2023/09/14 09:12:49;;;;;;;6.18;1.80;;;;;;;26.12;34.50;102174.09;5046433;28;20423;-75
2023/09/14 09:15:15;;;;;;;6.20;1.95;;;;;;;25.60;35.36;102183.19;5045967;28;20037;-75
2023/09/14 09:17:41;;;;;;;5.03;1.83;;;;;;;24.13;36.94;102173.03;5046647;28;20365;-75
2023/09/14 09:20:19;;;;;;;4.47;1.77;;;;;;;24.64;36.50;102175.50;5047601;28;20326;-75
2023/09/14 09:22:45;;;;;;;6.38;2.00;;;;;;;25.75;35.41;102177.78;5044835;28;20017;-76
2023/09/14 09:25:10;;;;;;;6.47;2.03;;;;;;;25.92;35.24;102168.47;5048687;28;20722;-75
2023/09/14 09:27:38;;;;;;;6.10;2.10;;;;;;;27.73;32.04;102174.16;5044505;28;20026;-75
2023/09/14 09:30:04;;;;;;;5.97;1.83;;;;;;;26.86;33.93;102168.47;5033724;28;20057;-75
2023/09/14 09:32:29;;;;;;;5.57;2.13;;;;;;;27.31;33.48;102162.34;5036976;28;20028;-75
2023/09/14 09:34:55;;;;;;;8.15;2.35;;;;;;;26.43;34.56;102159.53;5040710;28;20025;-75
2023/09/14 09:37:22;;;;;;;5.93;1.88;;;;;;;25.60;36.41;102164.72;5048836;28;20037;-75
2023/09/14 09:39:48;;;;;;;6.90;2.20;;;;;;;24.90;36.94;102164.75;5043538;28;20033;-75
2023/09/14 09:42:19;;;;;;;5.38;2.17;;;;;;;26.64;34.73;102165.94;5048767;28;20043;-76
2023/09/14 09:44:45;;;;;;;8.80;2.08;;;;;;;25.97;35.75;102160.19;5032118;28;20059;-75
2023/09/14 09:47:13;;;;;;;6.15;2.00;;;;;;;25.65;36.21;102155.66;5046217;28;20033;-75
2023/09/14 09:49:39;;;;;;;4.18;1.90;;;;;;;26.97;33.76;102155.50;5043653;28;20428;-75
2023/09/14 09:52:04;;;;;;;5.63;1.92;;;;;;;27.95;32.56;102154.44;5045301;28;20106;-76
2023/09/14 09:54:30;;;;;;;4.90;2.10;;;;;;;27.92;31.81;102150.28;5039005;28;20033;-76
2023/09/14 09:56:56;;;;;;;4.40;2.20;;;;;;;29.09;30.97;102154.53;5008953;28;20064;-76
2023/09/14 09:59:25;;;;;;;5.28;2.03;;;;;;;29.91;28.96;102149.19;5045529;28;20065;-77
2023/09/14 10:01:51;;;;;;;5.30;2.00;;;;;;;28.52;31.57;102145.81;5046766;28;20057;-75
2023/09/14 10:04:17;;;;;;;6.72;2.30;;;;;;;27.23;32.53;102144.38;5041935;28;20505;-75
2023/09/14 10:06:49;;;;;;;5.68;2.10;;;;;;;27.21;33.42;102146.59;5040658;28;20167;-75
2023/09/14 10:09:14;;;;;;;6.13;2.20;;;;;;;27.18;32.56;102141.66;5048340;28;20388;-75
2023/09/14 10:11:40;;;;;;;4.90;1.95;;;;;;;27.47;32.86;102143.81;5040856;28;20025;-75
2023/09/14 10:14:06;;;;;;;6.20;2.10;;;;;;;28.83;31.18;102140.91;5036916;28;20029;-75
2023/09/14 10:16:42;;;;;;;6.18;2.22;;;;;;;29.86;30.03;102139.00;5048086;28;20115;-75
2023/09/14 10:19:08;;;;;;;7.07;2.17;;;;;;;29.46;29.90;102139.22;5051324;28;20064;-74
2023/09/14 10:21:34;;;;;;;4.93;2.15;;;;;;;28.54;31.63;102136.13;5049751;28;20421;-75
2023/09/14 10:24:00;;;;;;;5.40;2.50;;;;;;;28.48;31.88;102134.50;5037149;28;20068;-75
2023/09/14 10:26:25;;;;;;;6.68;2.30;;;;;;;28.47;31.04;102127.28;5050958;28;20060;-75
2023/09/14 10:28:51;;;;;;;5.68;2.25;;;;;;;27.04;33.10;102131.16;5035701;28;20033;-75
2023/09/14 10:31:16;;;;;;;8.73;2.42;;;;;;;26.64;34.57;102133.63;5042718;28;20025;-75
2023/09/14 10:33:45;;;;;;;7.80;2.58;;;;;;;27.28;33.89;102136.09;5043716;28;20029;-75
2023/09/14 10:36:16;;;;;;;6.03;2.65;;;;;;;27.81;33.56;102137.63;5048864;28;20067;-76
2023/09/14 10:38:43;;;;;;;7.28;2.60;;;;;;;27.13;34.38;102138.88;5040111;28;20090;-75
2023/09/14 10:41:08;;;;;;;7.28;2.75;;;;;;;26.97;33.63;102132.53;5045301;28;20045;-75
2023/09/14 10:43:37;;;;;;;6.75;2.25;;;;;;;25.92;35.21;102132.63;5039972;28;20120;-75
2023/09/14 10:46:06;;;;;;;7.10;2.40;;;;;;;24.62;38.13;102134.47;5042668;28;20436;-75
2023/09/14 10:48:31;;;;;;;6.88;2.67;;;;;;;25.55;36.04;102137.13;5042204;28;20686;-75
2023/09/14 10:50:58;;;;;;;6.20;2.13;;;;;;;25.54;36.44;102127.19;5027804;28;20116;-76
2023/09/14 10:53:24;;;;;;;10.38;2.85;;;;;;;24.72;37.02;102128.25;5042631;28;20056;-76
2023/09/14 10:55:49;;;;;;;5.57;2.30;;;;;;;24.58;36.78;102121.47;5019976;28;20033;-75
2023/09/14 10:58:17;;;;;;;8.20;2.55;;;;;;;23.74;39.65;102119.72;5040749;28;20116;-76
2023/09/14 11:00:43;;;;;;;6.78;2.40;;;;;;;24.55;38.29;102120.06;5044613;28;20048;-76
2023/09/14 11:03:09;;;;;;;7.90;2.38;;;;;;;25.20;37.19;102114.56;5047139;28;20029;-75
2023/09/14 11:05:47;;;;;;;6.93;2.40;;;;;;;26.21;34.86;102119.19;5045501;28;20035;-76
2023/09/14 11:08:12;;;;;;;8.55;2.50;;;;;;;26.81;33.24;102112.41;5040915;28;20052;-75
2023/09/14 11:10:38;;;;;;;7.07;2.20;;;;;;;27.85;32.01;102116.56;5049404;28;20159;-76
2023/09/14 11:13:19;;;;;;;4.30;2.30;;;;;;;26.60;33.47;102115.94;5045243;28;20025;-75
2023/09/14 11:15:46;;;;;;;5.28;2.10;;;;;;;25.77;35.24;102109.34;5041426;28;20118;-75
2023/09/14 11:18:16;;;;;;;6.93;2.00;;;;;;;24.50;37.44;102106.28;5047406;28;20029;-75
2023/09/14 11:20:42;;;;;;;6.65;2.67;;;;;;;25.17;36.76;102114.25;5045113;28;20463;-75
2023/09/14 11:23:08;;;;;;;4.70;1.92;;;;;;;26.44;35.28;102108.75;5040519;28;20100;-76
2023/09/14 11:25:36;;;;;;;6.80;2.17;;;;;;;27.00;33.78;102110.72;5041373;28;20029;-75